createdAt,value
2023-02-12T00:00:07.610Z,60.8
2023-02-12T00:01:09.529Z,60.8
2023-02-12T00:02:12.220Z,60.8
2023-02-12T00:03:13.544Z,60.8
2023-02-12T00:04:15.137Z,60.8
2023-02-12T00:05:17.018Z,60.8
2023-02-12T00:06:18.897Z,60.8
2023-02-12T00:07:20.821Z,60.8
2023-02-12T00:08:22.644Z,60.8
2023-02-12T00:09:26.726Z,60.8
2023-02-12T00:10:37.044Z,60.8
2023-02-12T00:11:38.727Z,60.8
2023-02-12T00:12:40.596Z,60.8
2023-02-12T00:13:42.457Z,60.8
2023-02-12T00:14:44.832Z,60.8
2023-02-12T00:15:46.321Z,60.8
2023-02-12T00:16:48.095Z,60.8
2023-02-12T00:17:50.074Z,60.8
2023-02-12T00:18:52.236Z,60.8
2023-02-12T00:19:53.727Z,60.8
2023-02-12T00:20:55.595Z,60.8
2023-02-12T00:21:57.587Z,60.8
2023-02-12T00:22:59.853Z,60.8
2023-02-12T00:24:01.286Z,60.8
2023-02-12T00:25:03.273Z,60.8
2023-02-12T00:26:05.160Z,60.8
2023-02-12T00:27:07.442Z,60.8
2023-02-12T00:28:09.175Z,60.8
2023-02-12T00:29:10.759Z,60.8
2023-02-12T00:30:12.572Z,60.8
2023-02-12T00:31:15.104Z,60.8
2023-02-12T00:32:16.431Z,60.8
2023-02-12T00:33:18.388Z,60.8
2023-02-12T00:34:20.227Z,60.8
2023-02-12T00:35:22.010Z,60.8
2023-02-12T00:36:23.865Z,60.8
2023-02-12T00:37:25.864Z,60.8
2023-02-12T00:38:27.667Z,60.8
2023-02-12T00:39:29.547Z,60.8
2023-02-12T00:40:31.395Z,60.8
2023-02-12T00:41:33.390Z,60.8
2023-02-12T00:42:35.207Z,60.8
2023-02-12T00:43:37.261Z,60.8
2023-02-12T00:44:38.983Z,60.8
2023-02-12T00:45:40.795Z,60.8
2023-02-12T00:46:42.820Z,60.8
2023-02-12T00:47:44.660Z,60.8
2023-02-12T00:48:46.556Z,60.8
2023-02-12T00:49:48.381Z,60.8
2023-02-12T00:50:50.454Z,60.8
2023-02-12T00:51:52.097Z,60.8
2023-02-12T00:52:54.016Z,60.8
2023-02-12T00:53:55.955Z,60.8
2023-02-12T00:54:57.898Z,60.8
2023-02-12T00:55:59.691Z,60.8
2023-02-12T00:57:01.612Z,60.8
2023-02-12T00:58:03.531Z,60.8
2023-02-12T00:59:05.442Z,60.8
2023-02-12T01:00:07.300Z,60.8
2023-02-12T01:01:09.727Z,60.8
2023-02-12T01:02:10.978Z,60.8
2023-02-12T01:03:12.957Z,60.8
2023-02-12T01:04:14.978Z,60.8
2023-02-12T01:05:17.381Z,60.8
2023-02-12T01:06:18.499Z,60.8
2023-02-12T01:07:20.461Z,60.7
2023-02-12T01:08:22.281Z,60.7
2023-02-12T01:09:24.640Z,60.8
2023-02-12T01:10:26.099Z,60.7
2023-02-12T01:11:27.942Z,60.8
2023-02-12T01:12:29.822Z,60.8
2023-02-12T01:13:32.160Z,60.8
2023-02-12T01:14:33.736Z,60.8
2023-02-12T01:15:35.690Z,60.7
2023-02-12T01:16:37.595Z,60.7
2023-02-12T01:17:39.451Z,60.8
2023-02-12T01:18:41.111Z,60.7
2023-02-12T01:19:43.093Z,60.8
2023-02-12T01:20:45.034Z,60.7
2023-02-12T01:21:46.866Z,60.7
2023-02-12T01:22:48.821Z,60.7
2023-02-12T01:23:50.648Z,60.7
2023-02-12T01:24:52.462Z,60.7
2023-02-12T01:25:55.804Z,60.7
2023-02-12T01:27:06.640Z,60.7
2023-02-12T01:28:08.724Z,60.7
2023-02-12T01:29:10.363Z,60.7
2023-02-12T01:30:12.344Z,60.7
2023-02-12T01:31:14.921Z,60.7
2023-02-12T01:32:26.636Z,60.7
2023-02-12T01:33:28.447Z,60.7
2023-02-12T01:34:30.359Z,60.7
2023-02-12T01:35:32.306Z,60.7
2023-02-12T01:36:34.120Z,60.7
2023-02-12T01:37:36.062Z,60.7
2023-02-12T01:38:37.938Z,60.7
2023-02-12T01:39:39.794Z,60.7
2023-02-12T01:40:41.836Z,60.7
2023-02-12T01:41:43.624Z,60.7
2023-02-12T01:42:45.480Z,60.7
2023-02-12T01:43:47.471Z,60.7
2023-02-12T01:44:49.272Z,60.7
2023-02-12T01:45:51.259Z,60.7
2023-02-12T01:46:53.343Z,60.7
2023-02-12T01:47:54.931Z,60.7
2023-02-12T01:48:56.812Z,60.7
2023-02-12T01:49:58.668Z,60.7
2023-02-12T01:51:00.638Z,60.7
2023-02-12T01:52:02.387Z,60.7
2023-02-12T01:53:04.259Z,60.7
2023-02-12T01:54:06.208Z,60.7
2023-02-12T01:55:08.029Z,60.7
2023-02-12T01:56:09.979Z,60.7
2023-02-12T01:57:11.830Z,60.7
2023-02-12T01:58:13.756Z,60.7
2023-02-12T01:59:15.572Z,60.7
2023-02-12T02:00:18.035Z,60.7
2023-02-12T02:01:19.662Z,60.7
2023-02-12T02:02:21.232Z,60.7
2023-02-12T02:03:23.460Z,60.7
2023-02-12T02:04:25.659Z,60.7
2023-02-12T02:05:27.112Z,60.7
2023-02-12T02:06:28.982Z,60.7
2023-02-12T02:07:30.926Z,60.6
2023-02-12T02:08:32.926Z,60.7
2023-02-12T02:09:34.609Z,60.6
2023-02-12T02:10:36.581Z,60.6
2023-02-12T02:11:38.351Z,60.6
2023-02-12T02:12:40.271Z,60.6
2023-02-12T02:13:42.190Z,60.6
2023-02-12T02:14:44.130Z,60.6
2023-02-12T02:15:46.057Z,60.6
2023-02-12T02:16:47.996Z,60.6
2023-02-12T02:17:49.658Z,60.6
2023-02-12T02:18:51.555Z,60.6
2023-02-12T02:19:53.474Z,60.6
2023-02-12T02:20:55.310Z,60.6
2023-02-12T02:21:57.408Z,60.6
2023-02-12T02:22:59.281Z,60.6
2023-02-12T02:24:01.077Z,60.6
2023-02-12T02:25:02.908Z,60.6
2023-02-12T02:26:04.819Z,60.6
2023-02-12T02:27:06.739Z,60.6
2023-02-12T02:28:08.764Z,60.6
2023-02-12T02:29:10.480Z,60.6
2023-02-12T02:30:12.439Z,60.6
2023-02-12T02:31:14.642Z,60.6
2023-02-12T02:32:16.205Z,60.6
2023-02-12T02:33:18.200Z,60.6
2023-02-12T02:34:19.897Z,60.6
2023-02-12T02:35:21.857Z,60.6
2023-02-12T02:36:26.556Z,60.6
2023-02-12T02:37:35.920Z,60.6
2023-02-12T02:38:37.738Z,60.6
2023-02-12T02:39:39.638Z,60.6
2023-02-12T02:40:41.632Z,60.6
2023-02-12T02:41:43.391Z,60.6
2023-02-12T02:42:45.351Z,60.6
2023-02-12T02:43:47.150Z,60.6
2023-02-12T02:44:49.031Z,60.6
2023-02-12T02:45:50.990Z,60.5
2023-02-12T02:46:53.413Z,60.6
2023-02-12T02:47:54.787Z,60.6
2023-02-12T02:48:56.679Z,60.5
2023-02-12T02:49:58.519Z,60.6
2023-02-12T02:51:00.779Z,60.6
2023-02-12T02:52:02.254Z,60.6
2023-02-12T02:53:04.179Z,60.6
2023-02-12T02:54:05.978Z,60.6
2023-02-12T02:55:08.485Z,60.6
2023-02-12T02:56:09.901Z,60.5
2023-02-12T02:57:11.682Z,60.5
2023-02-12T02:58:13.542Z,60.5
2023-02-12T02:59:21.851Z,60.5
2023-02-12T03:00:27.659Z,60.5
2023-02-12T03:01:29.597Z,60.5
2023-02-12T03:02:31.407Z,60.5
2023-02-12T03:03:33.898Z,60.5
2023-02-12T03:04:35.270Z,60.5
2023-02-12T03:05:37.078Z,60.5
2023-02-12T03:06:38.978Z,60.5
2023-02-12T03:07:41.194Z,60.5
2023-02-12T03:08:42.768Z,60.5
2023-02-12T03:09:44.596Z,60.5
2023-02-12T03:10:46.570Z,60.5
2023-02-12T03:11:48.420Z,60.5
2023-02-12T03:12:50.381Z,60.5
2023-02-12T03:13:52.186Z,60.5
2023-02-12T03:14:54.089Z,60.5
2023-02-12T03:15:57.165Z,60.5
2023-02-12T03:17:08.381Z,60.5
2023-02-12T03:18:10.366Z,60.5
2023-02-12T03:19:12.267Z,60.5
2023-02-12T03:20:14.047Z,60.5
2023-02-12T03:21:15.951Z,60.5
2023-02-12T03:22:17.900Z,60.5
2023-02-12T03:23:19.715Z,60.5
2023-02-12T03:24:21.631Z,60.5
2023-02-12T03:25:23.602Z,60.5
2023-02-12T03:26:25.433Z,60.5
2023-02-12T03:27:27.402Z,60.5
2023-02-12T03:28:29.436Z,60.5
2023-02-12T03:29:31.114Z,60.5
2023-02-12T03:30:33.096Z,60.5
2023-02-12T03:31:35.164Z,60.5
2023-02-12T03:32:36.744Z,60.4
2023-02-12T03:33:38.858Z,60.5
2023-02-12T03:34:40.947Z,60.4
2023-02-12T03:35:42.698Z,60.4
2023-02-12T03:36:44.696Z,60.4
2023-02-12T03:37:46.861Z,60.4
2023-02-12T03:38:48.317Z,60.4
2023-02-12T03:39:50.250Z,60.5
2023-02-12T03:40:52.028Z,60.4
2023-02-12T03:41:54.447Z,60.5
2023-02-12T03:42:55.769Z,60.4
2023-02-12T03:43:57.686Z,60.5
2023-02-12T03:44:59.666Z,60.4
2023-02-12T03:46:02.335Z,60.4
2023-02-12T03:47:13.658Z,60.4
2023-02-12T03:48:15.555Z,60.4
2023-02-12T03:49:17.460Z,60.5
2023-02-12T03:50:20.010Z,60.4
2023-02-12T03:51:21.179Z,60.4
2023-02-12T03:52:23.061Z,60.4
2023-02-12T03:53:24.956Z,60.4
2023-02-12T03:54:27.249Z,60.4
2023-02-12T03:55:28.770Z,60.4
2023-02-12T03:56:30.622Z,60.4
2023-02-12T03:57:32.490Z,60.4
2023-02-12T03:58:34.680Z,60.4
2023-02-12T03:59:36.319Z,60.4
2023-02-12T04:00:38.183Z,60.4
2023-02-12T04:01:40.429Z,60.4
2023-02-12T04:02:41.995Z,60.4
2023-02-12T04:03:43.776Z,60.4
2023-02-12T04:04:45.665Z,60.4
2023-02-12T04:05:47.775Z,60.4
2023-02-12T04:06:49.433Z,60.4
2023-02-12T04:07:51.578Z,60.4
2023-02-12T04:08:53.451Z,60.4
2023-02-12T04:09:55.358Z,60.4
2023-02-12T04:10:57.192Z,60.4
2023-02-12T04:11:59.091Z,60.4
2023-02-12T04:13:00.942Z,60.4
2023-02-12T04:14:02.961Z,60.4
2023-02-12T04:15:04.981Z,60.4
2023-02-12T04:16:06.826Z,60.4
2023-02-12T04:17:08.690Z,60.4
2023-02-12T04:18:10.973Z,60.4
2023-02-12T04:19:12.356Z,60.4
2023-02-12T04:20:14.132Z,60.4
2023-02-12T04:21:16.096Z,60.4
2023-02-12T04:22:17.948Z,60.4
2023-02-12T04:23:19.794Z,60.3
2023-02-12T04:24:21.701Z,60.3
2023-02-12T04:25:23.771Z,60.3
2023-02-12T04:26:25.481Z,60.3
2023-02-12T04:27:27.431Z,60.3
2023-02-12T04:28:29.841Z,60.3
2023-02-12T04:29:31.090Z,60.3
2023-02-12T04:30:33.454Z,60.3
2023-02-12T04:31:35.351Z,60.3
2023-02-12T04:32:37.245Z,60.3
2023-02-12T04:33:38.634Z,60.3
2023-02-12T04:34:40.627Z,60.3
2023-02-12T04:35:42.392Z,60.3
2023-02-12T04:36:44.903Z,60.3
2023-02-12T04:37:46.167Z,60.3
2023-02-12T04:38:47.976Z,60.3
2023-02-12T04:39:49.942Z,60.3
2023-02-12T04:40:52.132Z,60.3
2023-02-12T04:41:53.637Z,60.3
2023-02-12T04:42:55.530Z,60.3
2023-02-12T04:43:57.448Z,60.3
2023-02-12T04:44:59.327Z,60.3
2023-02-12T04:46:01.296Z,60.3
2023-02-12T04:47:03.128Z,60.3
2023-02-12T04:48:04.926Z,60.3
2023-02-12T04:49:06.768Z,60.2
2023-02-12T04:50:08.762Z,60.2
2023-02-12T04:51:10.701Z,60.2
2023-02-12T04:52:12.628Z,60.2
2023-02-12T04:53:14.399Z,60.2
2023-02-12T04:54:16.324Z,60.2
2023-02-12T04:55:18.118Z,60.2
2023-02-12T04:56:20.059Z,60.2
2023-02-12T04:57:21.876Z,60.2
2023-02-12T04:58:23.786Z,60.2
2023-02-12T04:59:25.716Z,60.2
2023-02-12T05:00:27.561Z,60.2
2023-02-12T05:01:31.949Z,60.2
2023-02-12T05:02:41.644Z,60.2
2023-02-12T05:03:43.514Z,60.2
2023-02-12T05:04:45.563Z,60.2
2023-02-12T05:05:47.280Z,60.2
2023-02-12T05:06:49.208Z,60.2
2023-02-12T05:07:51.203Z,60.2
2023-02-12T05:08:52.964Z,60.2
2023-02-12T05:09:54.916Z,60.1
2023-02-12T05:10:56.753Z,60.1
2023-02-12T05:11:58.617Z,60.1
2023-02-12T05:13:00.557Z,60.1
2023-02-12T05:14:02.448Z,60.1
2023-02-12T05:15:04.227Z,60.1
2023-02-12T05:16:06.386Z,60.1
2023-02-12T05:17:08.036Z,60.1
2023-02-12T05:18:09.887Z,60.1
2023-02-12T05:19:12.638Z,60.1
2023-02-12T05:20:13.748Z,60.1
2023-02-12T05:21:15.550Z,60.1
2023-02-12T05:22:17.438Z,60.1
2023-02-12T05:23:19.965Z,60.1
2023-02-12T05:24:21.294Z,60.1
2023-02-12T05:25:23.372Z,60.1
2023-02-12T05:26:24.985Z,60.1
2023-02-12T05:27:27.375Z,60.1
2023-02-12T05:28:29.003Z,60.1
2023-02-12T05:29:30.658Z,60.1
2023-02-12T05:30:32.679Z,60.1
2023-02-12T05:31:35.889Z,60
2023-02-12T05:32:46.634Z,60
2023-02-12T05:33:48.540Z,60
2023-02-12T05:34:50.455Z,60
2023-02-12T05:35:53.185Z,60
2023-02-12T05:37:04.524Z,60
2023-02-12T05:38:06.365Z,60
2023-02-12T05:39:08.429Z,60
2023-02-12T05:40:10.677Z,60
2023-02-12T05:41:12.067Z,60
2023-02-12T05:42:14.044Z,60
2023-02-12T05:43:15.672Z,60
2023-02-12T05:44:18.155Z,60
2023-02-12T05:45:19.497Z,60
2023-02-12T05:46:21.673Z,60
2023-02-12T05:47:23.205Z,60
2023-02-12T05:48:25.625Z,60
2023-02-12T05:49:27.004Z,60
2023-02-12T05:50:28.905Z,60
2023-02-12T05:51:30.863Z,60
2023-02-12T05:52:32.947Z,60
2023-02-12T05:53:34.548Z,60
2023-02-12T05:54:36.605Z,60
2023-02-12T05:55:38.386Z,60
2023-02-12T05:56:40.262Z,60
2023-02-12T05:57:42.212Z,59.9
2023-02-12T05:58:44.069Z,59.9
2023-02-12T05:59:45.893Z,59.9
2023-02-12T06:00:47.897Z,59.9
2023-02-12T06:01:49.685Z,59.9
2023-02-12T06:02:51.626Z,59.9
2023-02-12T06:03:53.630Z,59.9
2023-02-12T06:04:55.295Z,59.9
2023-02-12T06:05:58.324Z,59.9
2023-02-12T06:07:09.481Z,59.9
2023-02-12T06:08:11.362Z,59.9
2023-02-12T06:09:13.164Z,59.9
2023-02-12T06:10:15.210Z,59.9
2023-02-12T06:11:17.005Z,59.9
2023-02-12T06:12:18.846Z,59.9
2023-02-12T06:13:20.672Z,59.9
2023-02-12T06:14:22.699Z,59.9
2023-02-12T06:15:24.491Z,59.9
2023-02-12T06:16:26.642Z,59.9
2023-02-12T06:17:28.291Z,59.9
2023-02-12T06:18:30.212Z,59.9
2023-02-12T06:19:32.005Z,59.9
2023-02-12T06:20:33.975Z,59.9
2023-02-12T06:21:35.836Z,59.9
2023-02-12T06:22:37.650Z,59.8
2023-02-12T06:23:39.600Z,59.9
2023-02-12T06:24:41.411Z,59.8
2023-02-12T06:25:43.389Z,59.8
2023-02-12T06:26:45.289Z,59.8
2023-02-12T06:27:47.168Z,59.8
2023-02-12T06:28:48.946Z,59.8
2023-02-12T06:29:50.904Z,59.8
2023-02-12T06:30:53.505Z,59.8
2023-02-12T06:31:54.925Z,59.8
2023-02-12T06:32:56.478Z,59.8
2023-02-12T06:33:58.440Z,59.8
2023-02-12T06:35:00.781Z,59.8
2023-02-12T06:36:02.168Z,59.8
2023-02-12T06:37:04.029Z,59.8
2023-02-12T06:38:05.919Z,59.8
2023-02-12T06:39:08.506Z,59.8
2023-02-12T06:40:10.026Z,59.8
2023-02-12T06:41:12.018Z,59.8
2023-02-12T06:42:13.721Z,59.8
2023-02-12T06:43:15.863Z,59.8
2023-02-12T06:44:17.709Z,59.8
2023-02-12T06:45:19.420Z,59.8
2023-02-12T06:46:21.572Z,59.8
2023-02-12T06:47:23.300Z,59.8
2023-02-12T06:48:25.052Z,59.8
2023-02-12T06:49:26.916Z,59.8
2023-02-12T06:50:28.893Z,59.8
2023-02-12T06:51:30.814Z,59.8
2023-02-12T06:52:32.582Z,59.8
2023-02-12T06:53:34.534Z,59.8
2023-02-12T06:54:36.365Z,59.8
2023-02-12T06:55:38.232Z,59.8
2023-02-12T06:56:40.482Z,59.8
2023-02-12T06:57:42.385Z,59.7
2023-02-12T06:58:44.176Z,59.8
2023-02-12T06:59:46.066Z,59.7
2023-02-12T07:00:48.075Z,59.7
2023-02-12T07:01:49.976Z,59.8
2023-02-12T07:02:51.726Z,59.7
2023-02-12T07:03:53.999Z,59.7
2023-02-12T07:04:55.485Z,59.7
2023-02-12T07:05:58.492Z,59.7
2023-02-12T07:06:59.340Z,59.8
2023-02-12T07:08:01.205Z,59.7
2023-02-12T07:09:03.610Z,59.8
2023-02-12T07:10:05.045Z,59.8
2023-02-12T07:11:06.854Z,59.8
2023-02-12T07:12:08.762Z,59.8
2023-02-12T07:13:11.114Z,59.7
2023-02-12T07:14:12.535Z,59.7
2023-02-12T07:15:14.394Z,59.7
2023-02-12T07:16:16.578Z,59.7
2023-02-12T07:17:18.693Z,59.7
2023-02-12T07:18:20.038Z,59.7
2023-02-12T07:19:21.854Z,59.7
2023-02-12T07:20:23.844Z,59.8
2023-02-12T07:21:25.980Z,59.7
2023-02-12T07:22:27.580Z,59.7
2023-02-12T07:23:29.491Z,59.7
2023-02-12T07:24:31.329Z,59.7
2023-02-12T07:25:33.274Z,59.7
2023-02-12T07:26:35.174Z,59.7
2023-02-12T07:27:37.198Z,59.7
2023-02-12T07:28:39.300Z,59.7
2023-02-12T07:29:40.812Z,59.7
2023-02-12T07:30:43.298Z,59.7
2023-02-12T07:31:44.835Z,59.7
2023-02-12T07:32:46.516Z,59.7
2023-02-12T07:33:48.388Z,59.7
2023-02-12T07:34:50.245Z,59.7
2023-02-12T07:35:52.225Z,59.7
2023-02-12T07:36:54.065Z,59.7
2023-02-12T07:37:55.896Z,59.7
2023-02-12T07:38:57.874Z,59.7
2023-02-12T07:39:59.727Z,59.7
2023-02-12T07:41:01.598Z,59.7
2023-02-12T07:42:03.559Z,59.7
2023-02-12T07:43:05.457Z,59.7
2023-02-12T07:44:07.220Z,59.7
2023-02-12T07:45:09.071Z,59.7
2023-02-12T07:46:11.388Z,59.7
2023-02-12T07:47:12.888Z,59.7
2023-02-12T07:48:14.843Z,59.7
2023-02-12T07:49:16.679Z,59.7
2023-02-12T07:50:18.487Z,59.7
2023-02-12T07:51:21.044Z,59.7
2023-02-12T07:52:22.537Z,59.7
2023-02-12T07:53:24.469Z,59.7
2023-02-12T07:54:26.274Z,59.7
2023-02-12T07:55:28.660Z,59.7
2023-02-12T07:56:30.043Z,59.7
2023-02-12T07:57:31.883Z,59.7
2023-02-12T07:58:33.931Z,59.7
2023-02-12T07:59:36.122Z,59.7
2023-02-12T08:00:37.510Z,59.7
2023-02-12T08:01:39.438Z,59.7
2023-02-12T08:02:41.514Z,59.7
2023-02-12T08:03:43.474Z,59.7
2023-02-12T08:04:45.420Z,59.7
2023-02-12T08:05:47.008Z,59.7
2023-02-12T08:06:48.858Z,59.7
2023-02-12T08:07:50.777Z,59.7
2023-02-12T08:08:52.671Z,59.7
2023-02-12T08:09:54.542Z,59.7
2023-02-12T08:10:56.405Z,59.7
2023-02-12T08:11:58.350Z,59.7
2023-02-12T08:13:00.189Z,59.7
2023-02-12T08:14:02.127Z,59.7
2023-02-12T08:15:03.989Z,59.7
2023-02-12T08:16:06.069Z,59.7
2023-02-12T08:17:07.646Z,59.6
2023-02-12T08:18:09.582Z,59.7
2023-02-12T08:19:26.297Z,59.6
2023-02-12T08:20:34.114Z,59.7
2023-02-12T08:21:35.809Z,59.7
2023-02-12T08:22:37.758Z,59.7
2023-02-12T08:23:39.587Z,59.6
2023-02-12T08:24:41.462Z,59.7
2023-02-12T08:25:43.458Z,59.6
2023-02-12T08:26:45.454Z,59.6
2023-02-12T08:27:47.135Z,59.6
2023-02-12T08:28:49.285Z,59.6
2023-02-12T08:29:51.053Z,59.6
2023-02-12T08:30:53.041Z,59.6
2023-02-12T08:31:55.054Z,59.6
2023-02-12T08:32:56.614Z,59.6
2023-02-12T08:33:58.436Z,59.6
2023-02-12T08:35:00.382Z,59.6
2023-02-12T08:36:02.939Z,59.6
2023-02-12T08:37:04.203Z,59.6
2023-02-12T08:38:06.097Z,59.6
2023-02-12T08:39:07.897Z,59.6
2023-02-12T08:40:09.742Z,59.6
2023-02-12T08:41:11.755Z,59.6
2023-02-12T08:42:13.595Z,59.6
2023-02-12T08:43:15.438Z,59.6
2023-02-12T08:44:17.375Z,59.6
2023-02-12T08:45:19.313Z,59.6
2023-02-12T08:46:21.245Z,59.6
2023-02-12T08:47:22.995Z,59.6
2023-02-12T08:48:24.962Z,59.6
2023-02-12T08:49:26.765Z,59.6
2023-02-12T08:50:29.217Z,59.6
2023-02-12T08:51:30.589Z,59.6
2023-02-12T08:52:32.414Z,59.6
2023-02-12T08:53:34.221Z,59.6
2023-02-12T08:54:36.570Z,59.6
2023-02-12T08:55:38.105Z,59.6
2023-02-12T08:56:39.889Z,59.6
2023-02-12T08:57:41.816Z,59.6
2023-02-12T08:58:44.175Z,59.6
2023-02-12T08:59:45.553Z,59.6
2023-02-12T09:00:47.560Z,59.6
2023-02-12T09:01:49.311Z,59.6
2023-02-12T09:02:51.656Z,59.6
2023-02-12T09:03:53.042Z,59.6
2023-02-12T09:04:54.935Z,59.6
2023-02-12T09:05:57.867Z,59.6
2023-02-12T09:07:11.349Z,59.6
2023-02-12T09:08:21.238Z,59.6
2023-02-12T09:09:23.168Z,59.6
2023-02-12T09:10:24.958Z,59.6
2023-02-12T09:11:27.294Z,59.6
2023-02-12T09:12:28.693Z,59.6
2023-02-12T09:13:30.610Z,59.6
2023-02-12T09:14:32.527Z,59.6
2023-02-12T09:15:34.991Z,59.6
2023-02-12T09:16:36.731Z,59.6
2023-02-12T09:17:38.230Z,59.6
2023-02-12T09:18:40.070Z,59.6
2023-02-12T09:19:42.140Z,59.6
2023-02-12T09:20:43.841Z,59.6
2023-02-12T09:21:45.737Z,59.6
2023-02-12T09:22:47.548Z,59.6
2023-02-12T09:23:49.559Z,59.6
2023-02-12T09:24:51.390Z,59.6
2023-02-12T09:25:53.251Z,59.6
2023-02-12T09:26:55.120Z,59.6
2023-02-12T09:27:57.024Z,59.6
2023-02-12T09:28:58.887Z,59.6
2023-02-12T09:30:00.809Z,59.6
2023-02-12T09:31:03.061Z,59.6
2023-02-12T09:32:04.802Z,59.6
2023-02-12T09:33:06.395Z,59.6
2023-02-12T09:34:08.404Z,59.6
2023-02-12T09:35:10.294Z,59.6
2023-02-12T09:36:12.127Z,59.6
2023-02-12T09:37:14.089Z,59.6
2023-02-12T09:38:16.014Z,59.6
2023-02-12T09:39:17.922Z,59.6
2023-02-12T09:40:19.715Z,59.6
2023-02-12T09:41:21.554Z,59.6
2023-02-12T09:42:23.458Z,59.6
2023-02-12T09:43:25.403Z,59.6
2023-02-12T09:44:27.258Z,59.6
2023-02-12T09:45:29.085Z,59.6
2023-02-12T09:46:31.393Z,59.6
2023-02-12T09:47:33.014Z,59.6
2023-02-12T09:48:34.753Z,59.6
2023-02-12T09:49:36.604Z,59.5
2023-02-12T09:50:38.542Z,59.5
2023-02-12T09:51:40.344Z,59.5
2023-02-12T09:52:42.287Z,59.5
2023-02-12T09:53:44.624Z,59.5
2023-02-12T09:54:46.024Z,59.5
2023-02-12T09:55:47.954Z,59.5
2023-02-12T09:56:49.866Z,59.5
2023-02-12T09:57:55.408Z,59.5
2023-02-12T09:59:03.998Z,59.5
2023-02-12T10:00:05.898Z,59.5
2023-02-12T10:01:07.897Z,59.5
2023-02-12T10:02:10.054Z,59.5
2023-02-12T10:03:11.566Z,59.5
2023-02-12T10:04:13.568Z,59.5
2023-02-12T10:05:15.197Z,59.5
2023-02-12T10:06:17.737Z,59.5
2023-02-12T10:07:19.015Z,59.5
2023-02-12T10:08:25.255Z,59.5
2023-02-12T10:09:33.025Z,59.5
2023-02-12T10:10:35.406Z,59.5
2023-02-12T10:11:36.780Z,59.5
2023-02-12T10:12:38.703Z,59.5
2023-02-12T10:13:40.706Z,59.5
2023-02-12T10:14:42.919Z,59.5
2023-02-12T10:15:44.584Z,59.6
2023-02-12T10:16:46.347Z,59.5
2023-02-12T10:17:48.207Z,59.5
2023-02-12T10:18:50.525Z,59.5
2023-02-12T10:19:51.978Z,59.5
2023-02-12T10:20:53.848Z,59.5
2023-02-12T10:21:55.693Z,59.5
2023-02-12T10:22:57.949Z,59.5
2023-02-12T10:23:59.538Z,59.5
2023-02-12T10:25:01.321Z,59.5
2023-02-12T10:26:03.238Z,59.5
2023-02-12T10:27:05.097Z,59.5
2023-02-12T10:28:07.092Z,59.6
2023-02-12T10:29:08.914Z,59.5
2023-02-12T10:30:10.800Z,59.5
2023-02-12T10:31:13.157Z,59.5
2023-02-12T10:32:14.543Z,59.5
2023-02-12T10:33:16.482Z,59.5
2023-02-12T10:34:18.493Z,59.5
2023-02-12T10:35:20.311Z,59.5
2023-02-12T10:36:22.142Z,59.5
2023-02-12T10:37:23.951Z,59.5
2023-02-12T10:38:25.812Z,59.5
2023-02-12T10:39:27.746Z,59.5
2023-02-12T10:40:29.679Z,59.5
2023-02-12T10:41:31.590Z,59.5
2023-02-12T10:42:33.631Z,59.5
2023-02-12T10:43:35.408Z,59.5
2023-02-12T10:44:37.194Z,59.5
2023-02-12T10:45:39.126Z,59.5
2023-02-12T10:46:41.236Z,59.5
2023-02-12T10:47:42.833Z,59.5
2023-02-12T10:48:44.714Z,59.5
2023-02-12T10:49:46.770Z,59.5
2023-02-12T10:50:48.503Z,59.5
2023-02-12T10:51:50.425Z,59.5
2023-02-12T10:52:52.859Z,59.5
2023-02-12T10:53:54.305Z,59.5
2023-02-12T10:54:56.171Z,59.5
2023-02-12T10:55:58.828Z,59.5
2023-02-12T10:57:00.384Z,59.5
2023-02-12T10:58:01.764Z,59.5
2023-02-12T10:59:03.694Z,59.5
2023-02-12T11:00:05.581Z,59.5
2023-02-12T11:01:07.984Z,59.5
2023-02-12T11:02:09.583Z,59.5
2023-02-12T11:03:11.352Z,59.5
2023-02-12T11:04:13.003Z,59.5
2023-02-12T11:05:15.566Z,59.5
2023-02-12T11:06:16.847Z,59.5
2023-02-12T11:07:18.687Z,59.5
2023-02-12T11:08:20.588Z,59.5
2023-02-12T11:09:22.465Z,59.5
2023-02-12T11:10:24.956Z,59.5
2023-02-12T11:11:26.240Z,59.5
2023-02-12T11:12:28.130Z,59.5
2023-02-12T11:13:30.294Z,59.5
2023-02-12T11:14:31.862Z,59.5
2023-02-12T11:15:33.725Z,59.5
2023-02-12T11:16:35.753Z,59.5
2023-02-12T11:17:37.806Z,59.5
2023-02-12T11:18:39.381Z,59.5
2023-02-12T11:19:41.239Z,59.5
2023-02-12T11:20:43.308Z,59.5
2023-02-12T11:21:45.101Z,59.5
2023-02-12T11:22:46.900Z,59.5
2023-02-12T11:23:48.789Z,59.5
2023-02-12T11:24:50.739Z,59.5
2023-02-12T11:25:52.539Z,59.5
2023-02-12T11:26:54.440Z,59.5
2023-02-12T11:27:56.478Z,59.5
2023-02-12T11:28:59.087Z,59.5
2023-02-12T11:30:10.450Z,59.5
2023-02-12T11:31:12.781Z,59.5
2023-02-12T11:32:14.266Z,59.5
2023-02-12T11:33:16.145Z,59.5
2023-02-12T11:34:18.059Z,59.5
2023-02-12T11:35:19.946Z,59.5
2023-02-12T11:36:22.072Z,59.5
2023-02-12T11:37:23.663Z,59.5
2023-02-12T11:38:25.796Z,59.5
2023-02-12T11:39:27.423Z,59.5
2023-02-12T11:40:29.364Z,59.5
2023-02-12T11:41:31.222Z,59.5
2023-02-12T11:42:33.070Z,59.5
2023-02-12T11:43:34.981Z,59.5
2023-02-12T11:44:36.884Z,59.5
2023-02-12T11:45:38.740Z,59.5
2023-02-12T11:46:40.814Z,59.5
2023-02-12T11:47:43.011Z,59.5
2023-02-12T11:48:44.534Z,59.5
2023-02-12T11:49:46.342Z,59.5
2023-02-12T11:50:48.275Z,59.5
2023-02-12T11:51:50.741Z,59.5
2023-02-12T11:52:52.152Z,59.5
2023-02-12T11:53:53.989Z,59.5
2023-02-12T11:54:55.809Z,59.5
2023-02-12T11:55:58.030Z,59.5
2023-02-12T11:56:59.716Z,59.5
2023-02-12T11:58:01.492Z,59.5
2023-02-12T11:59:03.389Z,59.5
2023-02-12T12:00:05.420Z,59.5
2023-02-12T12:01:07.188Z,59.5
2023-02-12T12:02:09.280Z,59.5
2023-02-12T12:03:11.120Z,59.5
2023-02-12T12:04:12.947Z,59.5
2023-02-12T12:05:14.665Z,59.5
2023-02-12T12:06:16.587Z,59.5
2023-02-12T12:07:18.617Z,59.5
2023-02-12T12:08:20.346Z,59.6
2023-02-12T12:09:22.199Z,59.5
2023-02-12T12:10:24.134Z,59.5
2023-02-12T12:11:26.044Z,59.5
2023-02-12T12:12:27.825Z,59.5
2023-02-12T12:13:29.985Z,59.5
2023-02-12T12:14:32.009Z,59.5
2023-02-12T12:15:33.768Z,59.5
2023-02-12T12:16:35.872Z,59.5
2023-02-12T12:17:37.610Z,59.5
2023-02-12T12:18:39.524Z,59.5
2023-02-12T12:19:41.242Z,59.5
2023-02-12T12:20:43.142Z,59.5
2023-02-12T12:21:45.001Z,59.5
2023-02-12T12:22:47.013Z,59.5
2023-02-12T12:23:48.866Z,59.5
2023-02-12T12:24:50.657Z,59.5
2023-02-12T12:25:53.098Z,59.5
2023-02-12T12:26:54.507Z,59.5
2023-02-12T12:27:56.430Z,59.5
2023-02-12T12:28:58.206Z,59.5
2023-02-12T12:30:00.569Z,59.5
2023-02-12T12:31:02.157Z,59.5
2023-02-12T12:32:04.179Z,59.5
2023-02-12T12:33:05.855Z,59.5
2023-02-12T12:34:08.225Z,59.5
2023-02-12T12:35:09.528Z,59.5
2023-02-12T12:36:11.448Z,59.5
2023-02-12T12:37:13.406Z,59.6
2023-02-12T12:38:15.544Z,59.5
2023-02-12T12:39:17.083Z,59.5
2023-02-12T12:40:19.047Z,59.5
2023-02-12T12:41:20.882Z,59.5
2023-02-12T12:42:22.823Z,59.5
2023-02-12T12:43:24.663Z,59.6
2023-02-12T12:44:26.679Z,59.5
2023-02-12T12:45:28.537Z,59.6
2023-02-12T12:46:30.320Z,59.5
2023-02-12T12:47:32.697Z,59.5
2023-02-12T12:48:34.177Z,59.5
2023-02-12T12:49:36.017Z,59.5
2023-02-12T12:50:38.499Z,59.5
2023-02-12T12:51:39.763Z,59.5
2023-02-12T12:52:41.750Z,59.5
2023-02-12T12:53:44.196Z,59.5
2023-02-12T12:54:55.776Z,59.5
2023-02-12T12:55:59.098Z,59.5
2023-02-12T12:57:09.938Z,59.5
2023-02-12T12:58:11.917Z,59.5
2023-02-12T12:59:13.759Z,59.5
2023-02-12T13:00:15.608Z,59.5
2023-02-12T13:01:17.767Z,59.5
2023-02-12T13:02:19.582Z,59.5
2023-02-12T13:03:21.260Z,59.5
2023-02-12T13:04:23.521Z,59.5
2023-02-12T13:05:25.044Z,59.5
2023-02-12T13:06:26.963Z,59.5
2023-02-12T13:07:28.922Z,59.5
2023-02-12T13:08:30.763Z,59.5
2023-02-12T13:09:32.691Z,59.5
2023-02-12T13:10:34.462Z,59.5
2023-02-12T13:11:36.371Z,59.5
2023-02-12T13:12:38.230Z,59.5
2023-02-12T13:13:40.167Z,59.5
2023-02-12T13:14:41.986Z,59.5
2023-02-12T13:15:43.886Z,59.5
2023-02-12T13:16:46.094Z,59.5
2023-02-12T13:17:47.993Z,59.5
2023-02-12T13:18:49.697Z,59.5
2023-02-12T13:19:51.596Z,59.5
2023-02-12T13:20:53.955Z,59.5
2023-02-12T13:21:55.335Z,59.5
2023-02-12T13:22:57.291Z,59.5
2023-02-12T13:23:59.151Z,59.5
2023-02-12T13:25:01.577Z,59.5
2023-02-12T13:26:02.902Z,59.5
2023-02-12T13:27:04.814Z,59.5
2023-02-12T13:28:06.796Z,59.5
2023-02-12T13:29:08.947Z,59.5
2023-02-12T13:30:10.470Z,59.5
2023-02-12T13:31:35.223Z,59.5
2023-02-12T13:32:45.108Z,59.5
2023-02-12T13:33:46.991Z,59.5
2023-02-12T13:34:48.909Z,59.5
2023-02-12T13:35:50.776Z,59.5
2023-02-12T13:36:52.700Z,59.5
2023-02-12T13:37:54.603Z,59.5
2023-02-12T13:38:56.466Z,59.5
2023-02-12T13:39:58.341Z,59.5
2023-02-12T13:41:00.410Z,59.5
2023-02-12T13:42:02.783Z,59.5
2023-02-12T13:43:04.003Z,59.5
2023-02-12T13:44:05.974Z,59.5
2023-02-12T13:45:07.824Z,59.5
2023-02-12T13:46:10.334Z,59.5
2023-02-12T13:47:11.561Z,59.5
2023-02-12T13:48:13.522Z,59.5
2023-02-12T13:49:15.346Z,59.5